createdAt,value
2023-01-17T00:02:25.959Z,81.70
2023-01-17T00:05:11.541Z,81.60
2023-01-17T00:07:57.166Z,81.80
2023-01-17T00:10:28.298Z,81.50
2023-01-17T00:13:03.393Z,82.20
2023-01-17T00:15:31.762Z,82.20
2023-01-17T00:18:00.069Z,82.00
2023-01-17T00:20:50.352Z,82.50
2023-01-17T00:23:42.889Z,82.10
2023-01-17T00:26:19.185Z,82.40
2023-01-17T00:28:46.939Z,82.00
2023-01-17T00:31:16.595Z,82.60
2023-01-17T00:33:44.082Z,82.40
2023-01-17T00:36:11.891Z,82.70
2023-01-17T00:38:40.524Z,82.50
2023-01-17T00:41:15.225Z,82.90
2023-01-17T00:44:00.812Z,83.00
2023-01-17T00:46:46.342Z,83.30
2023-01-17T00:49:32.552Z,83.10
2023-01-17T00:52:17.967Z,83.50
2023-01-17T00:55:03.611Z,83.70
2023-01-17T00:57:49.073Z,83.80
2023-01-17T01:00:37.503Z,83.90
2023-01-17T01:03:30.045Z,84.10
2023-01-17T01:06:16.323Z,84.10
2023-01-17T01:09:02.244Z,84.10
2023-01-17T01:11:47.604Z,84.00
2023-01-17T01:14:33.287Z,84.10
2023-01-17T01:17:18.640Z,83.90
2023-01-17T01:20:04.283Z,84.40
2023-01-17T01:22:49.758Z,84.50
2023-01-17T01:25:36.760Z,84.50
2023-01-17T01:28:33.271Z,84.30
2023-01-17T01:31:25.800Z,83.80
2023-01-17T01:33:53.723Z,83.60
2023-01-17T01:36:21.337Z,83.40
2023-01-17T01:38:50.168Z,83.60
2023-01-17T01:41:17.207Z,83.10
2023-01-17T01:43:55.562Z,82.80
2023-01-17T01:46:41.529Z,82.60
2023-01-17T01:49:25.246Z,82.90
2023-01-17T01:52:03.094Z,82.40
2023-01-17T01:55:20.754Z,82.50
2023-01-17T01:57:54.674Z,82.80
2023-01-17T02:10:48.415Z,83.70
2023-01-17T02:13:20.715Z,83.60
2023-01-17T02:16:37.159Z,84.10
2023-01-17T02:24:17.100Z,83.70
2023-01-17T02:31:27.528Z,83.60
2023-01-17T02:34:51.285Z,83.60
2023-01-17T02:37:30.313Z,83.50
2023-01-17T02:40:16.779Z,83.50
2023-01-17T02:42:58.255Z,83.90
2023-01-17T02:45:25.300Z,83.30
2023-01-17T02:47:52.252Z,83.40
2023-01-17T02:50:34.232Z,83.60
2023-01-17T02:53:36.972Z,83.90
2023-01-17T02:56:44.609Z,83.50
2023-01-17T02:59:35.800Z,83.30
2023-01-17T03:02:18.102Z,83.80
2023-01-17T03:05:01.073Z,84.80
2023-01-17T03:07:33.025Z,85.70
2023-01-17T03:10:05.498Z,86.30
2023-01-17T03:12:38.685Z,87.50
2023-01-17T03:15:16.028Z,88.80
2023-01-17T03:17:50.837Z,89.80
2023-01-17T03:20:18.034Z,90.20
2023-01-17T03:22:45.029Z,91.00
2023-01-17T03:25:12.259Z,91.80
2023-01-17T03:27:39.195Z,92.50
2023-01-17T03:30:07.566Z,92.80
2023-01-17T03:32:34.818Z,93.20
2023-01-17T03:35:02.007Z,93.90
2023-01-17T03:37:29.004Z,94.50
2023-01-17T03:39:55.978Z,94.70
2023-01-17T03:42:22.953Z,95.00
2023-01-17T03:44:49.951Z,95.50
2023-01-17T03:47:16.923Z,95.80
2023-01-17T03:49:43.861Z,96.00
2023-01-17T03:52:10.996Z,96.20
2023-01-17T03:54:41.372Z,96.40
2023-01-17T03:57:08.670Z,96.30
2023-01-17T03:59:35.792Z,96.60
2023-01-17T04:02:02.992Z,96.40
2023-01-17T04:04:30.127Z,96.70
2023-01-17T04:06:58.501Z,96.80
2023-01-17T04:09:25.500Z,96.70
2023-01-17T04:11:53.347Z,96.80
2023-01-17T04:14:20.358Z,96.90
2023-01-17T04:16:47.467Z,97.30
2023-01-17T04:19:14.769Z,97.80
2023-01-17T04:21:41.837Z,97.90
2023-01-17T04:24:08.954Z,98.10
2023-01-17T04:26:36.176Z,98.20
2023-01-17T04:29:03.977Z,98.20
2023-01-17T04:31:31.138Z,98.20
2023-01-17T04:33:58.101Z,98.60
2023-01-17T04:36:25.237Z,98.70
2023-01-17T04:38:52.161Z,98.90
2023-01-17T04:41:19.136Z,99.10
2023-01-17T04:43:46.176Z,99.60
2023-01-17T04:46:13.257Z,99.90
2023-01-17T04:48:40.251Z,99.90
2023-01-17T04:51:07.191Z,99.90
2023-01-17T04:53:34.201Z,99.90
2023-01-17T04:56:01.822Z,99.90
2023-01-17T04:58:29.267Z,99.90
2023-01-17T05:01:00.489Z,99.90
2023-01-17T05:03:28.074Z,99.90
2023-01-17T05:05:55.017Z,99.90
2023-01-17T05:08:22.041Z,99.90
2023-01-17T05:10:49.068Z,99.90
2023-01-17T05:13:16.262Z,99.90
2023-01-17T05:15:43.724Z,99.90
2023-01-17T05:18:18.837Z,99.90
2023-01-17T05:20:46.164Z,99.90
2023-01-17T05:23:13.241Z,99.90
2023-01-17T05:25:44.148Z,99.90
2023-01-17T05:28:15.061Z,99.90
2023-01-17T05:30:42.402Z,99.90
2023-01-17T05:33:10.448Z,99.90
2023-01-17T05:35:38.441Z,99.90
2023-01-17T05:38:05.642Z,99.90
2023-01-17T05:40:34.158Z,99.50
2023-01-17T05:43:03.871Z,99.20
2023-01-17T05:45:33.533Z,98.80
2023-01-17T05:48:01.566Z,99.00
2023-01-17T05:50:37.781Z,98.40
2023-01-17T05:53:15.730Z,98.00
2023-01-17T05:55:44.208Z,98.30
2023-01-17T05:58:19.886Z,97.90
2023-01-17T06:00:47.958Z,97.80
2023-01-17T06:03:16.260Z,97.70
2023-01-17T06:05:46.593Z,98.60
2023-01-17T06:08:16.544Z,98.20
2023-01-17T06:10:44.071Z,98.40
2023-01-17T06:13:16.609Z,98.60
2023-01-17T06:15:43.572Z,98.80
2023-01-17T06:18:17.907Z,98.10
2023-01-17T06:20:45.453Z,98.00
2023-01-17T06:23:14.938Z,97.80
2023-01-17T06:25:46.552Z,97.90
2023-01-17T06:28:21.218Z,98.50
2023-01-17T06:30:49.672Z,97.50
2023-01-17T06:33:17.406Z,97.60
2023-01-17T06:35:53.562Z,97.20
2023-01-17T06:38:21.428Z,97.20
2023-01-17T06:40:50.850Z,96.50
2023-01-17T06:43:17.967Z,95.80
2023-01-17T06:45:45.113Z,96.30
2023-01-17T06:48:12.519Z,96.20
2023-01-17T06:50:39.518Z,96.10
2023-01-17T06:53:07.912Z,96.10
2023-01-17T06:55:39.491Z,96.60
2023-01-17T06:58:06.758Z,96.40
2023-01-17T07:00:39.577Z,96.70
2023-01-17T07:03:23.322Z,96.30
2023-01-17T07:05:51.394Z,96.00
2023-01-17T07:08:20.422Z,96.50
2023-01-17T07:10:48.976Z,96.80
2023-01-17T07:13:15.912Z,96.00
2023-01-17T07:15:43.043Z,96.70
2023-01-17T07:18:10.030Z,95.80
2023-01-17T07:20:38.321Z,95.60
2023-01-17T07:23:06.674Z,96.00
2023-01-17T07:25:33.733Z,95.80
2023-01-17T07:28:00.807Z,95.10
2023-01-17T07:30:27.933Z,95.50
2023-01-17T07:32:55.734Z,95.50
2023-01-17T07:35:28.165Z,95.50
2023-01-17T07:37:55.308Z,96.00
2023-01-17T07:40:24.379Z,96.10
2023-01-17T07:42:51.683Z,95.70
2023-01-17T07:45:19.875Z,95.70
2023-01-17T07:47:47.230Z,96.10
2023-01-17T07:50:14.281Z,95.70
2023-01-17T07:52:41.728Z,96.40
2023-01-17T07:55:09.902Z,95.90
2023-01-17T07:57:37.141Z,95.70
2023-01-17T08:00:05.919Z,95.80
2023-01-17T08:02:33.029Z,96.20
2023-01-17T08:05:00.127Z,96.00
2023-01-17T08:07:29.661Z,96.20
2023-01-17T08:09:56.679Z,96.30
2023-01-17T08:12:25.911Z,96.70
2023-01-17T08:14:54.742Z,96.70
2023-01-17T08:17:24.537Z,96.60
2023-01-17T08:19:53.184Z,96.50
2023-01-17T08:22:20.306Z,94.90
2023-01-17T08:24:47.507Z,95.20
2023-01-17T08:27:15.348Z,95.50
2023-01-17T08:29:46.872Z,95.30
2023-01-17T08:32:15.724Z,95.20
2023-01-17T08:34:42.898Z,95.10
2023-01-17T08:37:09.807Z,95.10
2023-01-17T08:39:39.773Z,94.40
2023-01-17T08:42:07.128Z,94.20
2023-01-17T08:44:34.282Z,93.50
2023-01-17T08:47:01.946Z,92.90
2023-01-17T08:49:29.068Z,92.10
2023-01-17T08:51:56.562Z,92.20
2023-01-17T08:54:23.867Z,92.60
2023-01-17T08:56:52.697Z,93.50
2023-01-17T08:59:19.719Z,92.20
2023-01-17T09:01:46.726Z,92.20
2023-01-17T09:04:15.267Z,91.50
2023-01-17T09:06:48.384Z,91.50
2023-01-17T09:09:18.824Z,91.20
2023-01-17T09:11:45.764Z,89.10
2023-01-17T09:14:14.095Z,88.70
2023-01-17T09:16:41.440Z,86.80
2023-01-17T09:19:10.126Z,85.80
2023-01-17T09:21:37.048Z,84.50
2023-01-17T09:24:04.506Z,83.00
2023-01-17T09:26:31.792Z,80.40
2023-01-17T09:28:58.802Z,80.30
2023-01-17T09:31:27.660Z,82.00
2023-01-17T09:34:08.793Z,82.60
2023-01-17T09:36:35.899Z,82.10
2023-01-17T09:39:04.811Z,82.00
2023-01-17T09:41:38.623Z,84.10
2023-01-17T09:44:38.148Z,84.00
2023-01-17T09:47:40.299Z,84.40
2023-01-17T09:50:44.651Z,84.40
2023-01-17T09:53:21.406Z,84.40
2023-01-17T09:56:06.478Z,84.70
2023-01-17T09:59:09.114Z,84.30
2023-01-17T10:02:17.912Z,84.80
2023-01-17T10:05:19.113Z,84.80
2023-01-17T10:08:23.522Z,91.90
2023-01-17T10:11:15.489Z,81.00
2023-01-17T10:14:38.011Z,85.50
2023-01-17T10:17:38.649Z,86.30
2023-01-17T10:20:17.468Z,86.80
2023-01-17T10:23:09.805Z,87.00
2023-01-17T10:25:52.543Z,87.80
2023-01-17T10:28:51.281Z,86.90
2023-01-17T10:31:34.184Z,86.50
2023-01-17T10:34:23.180Z,85.90
2023-01-17T10:37:14.828Z,86.20
2023-01-17T10:39:47.529Z,84.80
2023-01-17T10:42:30.830Z,85.00
2023-01-17T10:45:28.867Z,85.50
2023-01-17T10:48:33.259Z,85.30
2023-01-17T10:51:44.136Z,85.70
2023-01-17T10:54:44.725Z,86.30
2023-01-17T10:57:23.012Z,86.50
2023-01-17T10:59:52.120Z,87.20
2023-01-17T11:02:49.497Z,87.60
2023-01-17T11:05:32.823Z,88.90
2023-01-17T11:08:11.811Z,88.60
2023-01-17T11:10:51.029Z,88.20
2023-01-17T11:13:38.820Z,91.40
2023-01-17T11:16:18.610Z,94.50
2023-01-17T11:18:45.959Z,95.40
2023-01-17T11:21:25.360Z,97.80
2023-01-17T11:23:57.411Z,97.80
2023-01-17T11:26:31.511Z,98.00
2023-01-17T11:29:40.303Z,99.40
2023-01-17T11:32:31.087Z,99.90
2023-01-17T11:35:16.707Z,99.90
2023-01-17T11:38:19.147Z,99.90
2023-01-17T11:40:49.651Z,99.90
2023-01-17T11:43:27.987Z,99.90
2023-01-17T11:46:22.447Z,99.90
2023-01-17T11:49:00.231Z,99.90
2023-01-17T11:51:35.324Z,99.90
2023-01-17T11:54:30.259Z,99.90
2023-01-17T11:57:01.564Z,99.90
2023-01-17T11:59:37.659Z,99.90
2023-01-17T12:02:51.504Z,99.90
2023-01-17T12:06:08.468Z,99.90
2023-01-17T12:09:15.870Z,99.90
2023-01-17T12:12:51.994Z,99.90
2023-01-17T12:15:52.244Z,99.90
2023-01-17T12:19:01.063Z,99.90
2023-01-17T12:22:17.862Z,99.90
2023-01-17T12:25:01.784Z,98.80
2023-01-17T12:28:29.788Z,99.90
2023-01-17T12:31:07.171Z,98.60
2023-01-17T12:33:54.642Z,99.90
2023-01-17T12:36:52.702Z,96.20
2023-01-17T12:39:36.255Z,93.60
2023-01-17T12:42:30.877Z,94.80
2023-01-17T12:45:32.496Z,91.60
2023-01-17T12:48:15.889Z,89.10
2023-01-17T12:51:00.840Z,86.90
2023-01-17T12:54:18.190Z,86.80
2023-01-17T12:56:59.441Z,85.20
2023-01-17T13:00:04.828Z,85.00
2023-01-17T13:03:27.436Z,85.40
2023-01-17T13:05:59.734Z,85.50
2023-01-17T13:09:02.613Z,83.60
2023-01-17T13:11:57.653Z,83.10
2023-01-17T13:14:24.786Z,83.50
2023-01-17T13:17:02.835Z,84.40
2023-01-17T13:19:50.463Z,84.90
2023-01-17T13:22:21.928Z,82.70
2023-01-17T13:25:00.304Z,83.90
2023-01-17T13:27:54.368Z,84.20
2023-01-17T13:31:10.870Z,81.40
2023-01-17T13:34:17.308Z,82.50
2023-01-17T13:37:38.420Z,83.10
2023-01-17T13:40:29.385Z,82.40
2023-01-17T13:43:02.280Z,82.60
2023-01-17T13:45:36.217Z,81.10
2023-01-17T13:48:12.484Z,81.80
2023-01-17T13:50:58.505Z,79.30
2023-01-17T13:53:34.567Z,80.40
2023-01-17T13:56:19.387Z,78.70
2023-01-17T13:58:59.072Z,78.00
2023-01-17T14:01:40.907Z,80.40
2023-01-17T14:04:15.264Z,78.60
2023-01-17T14:06:55.565Z,79.00
2023-01-17T14:09:41.255Z,77.40
2023-01-17T14:12:11.330Z,79.40
2023-01-17T14:14:44.448Z,78.20
2023-01-17T14:17:37.213Z,79.60
2023-01-17T14:20:10.197Z,79.00
2023-01-17T14:22:51.322Z,77.30
2023-01-17T14:25:41.975Z,78.10
2023-01-17T14:28:29.238Z,76.60
2023-01-17T14:31:00.969Z,76.70
2023-01-17T14:33:47.705Z,77.30
2023-01-17T14:36:29.539Z,79.00
2023-01-17T14:38:56.751Z,78.70
2023-01-17T14:41:29.633Z,77.40
2023-01-17T14:44:11.038Z,77.80
2023-01-17T14:46:38.095Z,77.00
2023-01-17T14:49:27.110Z,77.40
2023-01-17T14:52:07.620Z,76.30
2023-01-17T14:54:34.888Z,76.10
2023-01-17T14:57:34.688Z,75.90
2023-01-17T15:00:30.985Z,73.70
2023-01-17T15:03:02.189Z,75.10
2023-01-17T15:05:30.283Z,75.20
2023-01-17T15:07:59.525Z,76.20
2023-01-17T15:10:52.198Z,75.80
2023-01-17T15:13:44.705Z,75.10
2023-01-17T15:16:26.429Z,75.50
2023-01-17T15:18:59.372Z,75.10
2023-01-17T15:21:42.536Z,73.20
2023-01-17T15:24:31.988Z,74.10
2023-01-17T15:27:00.119Z,74.90
2023-01-17T15:29:35.825Z,74.60
2023-01-17T15:32:31.326Z,74.80
2023-01-17T15:35:03.644Z,74.40
2023-01-17T15:37:39.947Z,75.10
2023-01-17T15:40:20.640Z,74.90
2023-01-17T15:42:51.632Z,75.70
2023-01-17T15:45:28.910Z,78.60
2023-01-17T15:48:44.861Z,75.20
2023-01-17T15:51:13.866Z,76.50
2023-01-17T15:54:01.174Z,77.30
2023-01-17T15:56:45.518Z,78.30
2023-01-17T15:59:52.052Z,79.20
2023-01-17T16:02:43.184Z,79.80
2023-01-17T16:05:44.080Z,79.40
2023-01-17T16:08:11.035Z,80.70
2023-01-17T16:10:42.060Z,80.30
2023-01-17T16:13:19.244Z,80.50
2023-01-17T16:15:46.445Z,80.60
2023-01-17T16:18:26.530Z,80.80
2023-01-17T16:21:08.425Z,81.10
2023-01-17T16:23:37.472Z,80.90
2023-01-17T16:26:05.779Z,80.90
2023-01-17T16:28:33.055Z,81.20
2023-01-17T16:31:03.279Z,80.10
2023-01-17T16:33:30.394Z,80.20
2023-01-17T16:36:03.422Z,79.90
2023-01-17T16:38:32.139Z,79.60
2023-01-17T16:40:59.192Z,79.60
2023-01-17T16:43:26.293Z,79.00
2023-01-17T16:45:55.514Z,79.90
2023-01-17T16:48:22.827Z,79.80
2023-01-17T16:50:58.743Z,80.90
2023-01-17T16:53:28.635Z,82.30
2023-01-17T16:56:07.813Z,82.50
2023-01-17T16:58:34.931Z,82.90
2023-01-17T17:01:09.252Z,83.00
2023-01-17T17:03:36.365Z,83.70
2023-01-17T17:06:06.752Z,84.20
2023-01-17T17:08:37.069Z,84.00
2023-01-17T17:11:15.261Z,84.80
2023-01-17T17:13:49.264Z,85.00
2023-01-17T17:16:30.047Z,84.10
2023-01-17T17:19:04.118Z,84.50
2023-01-17T17:21:34.534Z,85.20
2023-01-17T17:24:02.488Z,85.90
2023-01-17T17:26:37.487Z,86.00
2023-01-17T17:29:10.392Z,85.50
2023-01-17T17:31:40.684Z,85.20
2023-01-17T17:34:12.354Z,86.90
2023-01-17T17:36:39.852Z,90.00
2023-01-17T17:39:13.443Z,90.50
2023-01-17T17:41:44.764Z,90.10
2023-01-17T17:44:12.905Z,90.00
2023-01-17T17:46:42.919Z,88.00
2023-01-17T17:49:10.063Z,88.60
2023-01-17T17:51:40.063Z,88.20
2023-01-17T17:54:12.221Z,89.10
2023-01-17T17:56:40.471Z,89.30
2023-01-17T17:59:09.807Z,89.30
2023-01-17T18:01:40.979Z,89.70
2023-01-17T18:04:11.543Z,88.30
2023-01-17T18:06:40.283Z,88.10
2023-01-17T18:09:10.203Z,88.70
2023-01-17T18:11:41.801Z,92.10
2023-01-17T18:14:14.553Z,91.30
2023-01-17T18:16:44.824Z,91.20
2023-01-17T18:19:17.971Z,89.70
2023-01-17T18:21:45.838Z,88.50
2023-01-17T18:24:18.391Z,89.20
2023-01-17T18:26:53.118Z,88.70
2023-01-17T18:29:22.591Z,86.90
2023-01-17T18:31:52.196Z,85.60
2023-01-17T18:34:29.074Z,83.70
2023-01-17T18:36:57.126Z,85.30
2023-01-17T18:39:29.235Z,86.20
2023-01-17T18:41:59.511Z,87.20
2023-01-17T18:44:27.486Z,89.50
2023-01-17T18:46:58.031Z,90.00
2023-01-17T18:49:25.224Z,89.20
2023-01-17T18:51:52.160Z,88.80
2023-01-17T18:54:20.592Z,88.50
2023-01-17T18:56:48.259Z,88.70
2023-01-17T18:59:21.429Z,89.10
2023-01-17T19:01:48.533Z,88.80
2023-01-17T19:04:17.418Z,86.30
2023-01-17T19:06:48.134Z,86.20
2023-01-17T19:09:18.371Z,86.30
2023-01-17T19:11:47.273Z,86.80
2023-01-17T19:14:15.767Z,86.80
2023-01-17T19:16:46.070Z,86.00
2023-01-17T19:19:15.726Z,86.20
2023-01-17T19:21:43.445Z,86.20
2023-01-17T19:24:13.397Z,87.60
2023-01-17T19:26:44.420Z,87.40
2023-01-17T19:29:15.158Z,88.00
2023-01-17T19:31:44.856Z,86.40
2023-01-17T19:34:19.591Z,85.80
2023-01-17T19:36:50.619Z,85.30
2023-01-17T19:39:17.563Z,85.30
2023-01-17T19:41:46.005Z,85.80
2023-01-17T19:44:15.121Z,86.10
2023-01-17T19:46:51.067Z,86.60
2023-01-17T19:49:23.758Z,87.80
2023-01-17T19:51:51.947Z,88.90
2023-01-17T19:54:19.277Z,92.00
2023-01-17T19:56:46.284Z,92.80
2023-01-17T19:59:20.008Z,93.40
2023-01-17T20:01:50.269Z,93.60
2023-01-17T20:04:18.685Z,94.40
2023-01-17T20:06:46.834Z,93.90
2023-01-17T20:09:13.879Z,92.70
2023-01-17T20:11:45.546Z,91.20
2023-01-17T20:14:16.501Z,91.90
2023-01-17T20:16:47.298Z,92.40
2023-01-17T20:19:17.171Z,96.90
2023-01-17T20:21:47.111Z,92.70
2023-01-17T20:24:14.477Z,92.30
2023-01-17T20:26:41.699Z,92.90
2023-01-17T20:29:17.143Z,93.90
2023-01-17T20:31:46.139Z,94.30
2023-01-17T20:34:19.484Z,94.30
2023-01-17T20:36:48.122Z,93.30
2023-01-17T20:39:16.023Z,94.30
2023-01-17T20:41:46.239Z,94.70
2023-01-17T20:44:16.554Z,95.40
2023-01-17T20:46:44.186Z,95.70
2023-01-17T20:49:17.130Z,95.80
2023-01-17T20:51:46.419Z,94.00
2023-01-17T20:54:23.568Z,93.80
2023-01-17T20:56:51.349Z,93.00
2023-01-17T20:59:22.896Z,93.00
2023-01-17T21:01:51.715Z,92.70
2023-01-17T21:04:25.882Z,92.90
2023-01-17T21:06:58.775Z,91.90
2023-01-17T21:09:27.856Z,91.60
2023-01-17T21:12:03.969Z,92.30
2023-01-17T21:14:31.248Z,93.90
2023-01-17T21:16:58.568Z,95.50
2023-01-17T21:19:25.703Z,95.30
2023-01-17T21:21:52.675Z,97.60
2023-01-17T21:24:20.087Z,96.80
2023-01-17T21:26:47.508Z,95.70
2023-01-17T21:29:15.992Z,96.20
2023-01-17T21:31:43.569Z,98.80
2023-01-17T21:34:13.762Z,98.70
2023-01-17T21:36:43.176Z,97.80
2023-01-17T21:39:16.655Z,98.10
2023-01-17T21:41:49.460Z,98.10
2023-01-17T21:44:26.049Z,97.70
2023-01-17T21:46:55.976Z,97.40
2023-01-17T21:49:23.773Z,98.00
2023-01-17T21:51:53.705Z,97.00
2023-01-17T21:54:45.146Z,96.60
2023-01-17T21:57:39.445Z,96.70
2023-01-17T22:00:15.642Z,98.80
2023-01-17T22:02:48.461Z,98.10
2023-01-17T22:05:16.850Z,98.00
2023-01-17T22:08:03.933Z,99.10
2023-01-17T22:10:34.509Z,99.90
2023-01-17T22:13:01.499Z,99.90
2023-01-17T22:15:28.570Z,99.90
2023-01-17T22:17:55.819Z,99.90
2023-01-17T22:20:23.992Z,99.90
2023-01-17T22:22:50.888Z,99.90
2023-01-17T22:25:17.856Z,99.90
2023-01-17T22:27:44.766Z,99.90
2023-01-17T22:30:13.200Z,99.90
2023-01-17T22:32:45.426Z,99.90
2023-01-17T22:35:18.469Z,99.90
2023-01-17T22:37:45.395Z,99.90
2023-01-17T22:40:13.233Z,99.90
2023-01-17T22:42:40.462Z,99.90
2023-01-17T22:45:10.163Z,99.90
2023-01-17T22:47:38.310Z,99.90
2023-01-17T22:50:09.764Z,99.90
2023-01-17T22:52:36.628Z,99.90
2023-01-17T22:55:05.181Z,99.90
2023-01-17T22:57:35.575Z,99.90
2023-01-17T23:00:02.585Z,99.90
2023-01-17T23:02:29.581Z,99.90
2023-01-17T23:04:56.574Z,99.90
2023-01-17T23:07:26.447Z,99.90
2023-01-17T23:09:53.593Z,99.90
2023-01-17T23:12:20.492Z,99.90
2023-01-17T23:15:06.443Z,99.90
2023-01-17T23:17:51.888Z,99.50
2023-01-17T23:20:18.897Z,98.40
2023-01-17T23:22:45.868Z,96.60
2023-01-17T23:25:14.189Z,95.70
2023-01-17T23:28:05.349Z,94.60
2023-01-17T23:30:40.559Z,94.40
2023-01-17T23:33:17.008Z,93.60
2023-01-17T23:35:46.564Z,95.10
2023-01-17T23:38:37.461Z,96.70
2023-01-17T23:41:28.625Z,97.80
2023-01-17T23:43:58.682Z,99.10
2023-01-17T23:46:27.208Z,99.60
2023-01-17T23:48:55.071Z,99.20
2023-01-17T23:51:22.377Z,98.70
2023-01-17T23:53:50.895Z,97.60
2023-01-17T23:56:23.520Z,96.90
2023-01-17T23:58:50.766Z,96.30
